Time;durP1;ratioP1;P1;durP2;ratioP2;P2;SDS_P1;SDS_P2;PMS_P1;PMS_P2;Temp;Humidity;BMP_temperature;BMP_pressure;BME280_temperature;BME280_humidity;BME280_pressure;Samples;Min_cycle;Max_cycle;Signal;HPM_P1;HPM_P2
2022/02/19 00:00:12;;;;;;;27.55;4.05;;;8.10;85.40;;;;;;5050731;28;20417;-70
2022/02/19 00:02:39;;;;;;;29.92;3.90;;;8.10;85.60;;;;;;5047384;28;20402;-69
2022/02/19 00:05:05;;;;;;;22.58;3.55;;;8.10;85.90;;;;;;5048447;28;20416;-70
2022/02/19 00:07:31;;;;;;;21.17;3.90;;;8.10;85.90;;;;;;5047257;28;20484;-70
2022/02/19 00:09:57;;;;;;;24.57;4.03;;;8.00;85.80;;;;;;5050779;28;20536;-70
2022/02/19 00:12:23;;;;;;;25.52;3.95;;;8.00;85.50;;;;;;5050645;28;20992;-69
2022/02/19 00:14:51;;;;;;;24.88;3.95;;;8.00;85.60;;;;;;5050847;28;20920;-70
2022/02/19 00:17:17;;;;;;;27.97;4.27;;;8.00;86.00;;;;;;5046282;28;20437;-69
2022/02/19 00:19:43;;;;;;;26.30;4.43;;;8.00;86.80;;;;;;5051088;28;20451;-69
2022/02/19 00:22:08;;;;;;;29.67;4.82;;;8.10;87.70;;;;;;5049567;28;20433;-69
2022/02/19 00:24:34;;;;;;;25.13;3.90;;;8.10;88.20;;;;;;5050790;28;20935;-69
2022/02/19 00:26:59;;;;;;;24.27;4.00;;;8.10;88.00;;;;;;5050400;28;20412;-70
2022/02/19 00:29:25;;;;;;;30.30;4.18;;;8.00;88.00;;;;;;5048613;28;21429;-70
2022/02/19 00:31:51;;;;;;;21.70;3.70;;;8.10;88.60;;;;;;5046869;28;20443;-68
2022/02/19 00:34:17;;;;;;;23.52;4.00;;;8.00;88.50;;;;;;5049008;28;20422;-65
2022/02/19 00:36:43;;;;;;;28.70;4.20;;;8.00;88.50;;;;;;5049328;28;22266;-68
2022/02/19 00:39:10;;;;;;;21.52;3.58;;;8.00;89.30;;;;;;5050125;28;20785;-68
2022/02/19 00:41:38;;;;;;;26.23;4.33;;;8.00;89.30;;;;;;5070857;28;20427;-69
2022/02/19 00:44:07;;;;;;;23.35;3.70;;;8.00;89.40;;;;;;5051643;28;20395;-69
2022/02/19 00:46:34;;;;;;;25.13;3.78;;;8.00;89.50;;;;;;5051740;28;20404;-67
2022/02/19 00:49:02;;;;;;;29.60;4.40;;;8.00;90.00;;;;;;5051696;28;20396;-67
2022/02/19 00:51:30;;;;;;;26.88;4.00;;;8.00;90.10;;;;;;5052563;28;20411;-69
2022/02/19 00:53:56;;;;;;;24.58;3.75;;;8.00;90.10;;;;;;5068405;28;20415;-68
2022/02/19 00:56:22;;;;;;;27.25;4.30;;;8.00;90.30;;;;;;5051767;28;20404;-69
2022/02/19 00:58:48;;;;;;;28.92;4.30;;;8.00;90.10;;;;;;5051313;28;20411;-68
2022/02/19 01:01:14;;;;;;;26.07;4.20;;;8.00;90.10;;;;;;5052128;28;20404;-68
2022/02/19 01:03:48;;;;;;;23.52;3.85;;;8.00;90.20;;;;;;5035290;28;20931;-68
2022/02/19 01:06:14;;;;;;;21.88;3.53;;;8.10;90.30;;;;;;5052185;28;20402;-68
2022/02/19 01:08:39;;;;;;;14.00;3.20;;;8.00;89.60;;;;;;5069471;28;20422;-69
2022/02/19 01:11:05;;;;;;;24.50;3.60;;;8.00;89.20;;;;;;5051778;28;20810;-68
2022/02/19 01:13:31;;;;;;;25.00;4.05;;;8.00;89.60;;;;;;5050226;28;20431;-69
2022/02/19 01:15:58;;;;;;;23.38;3.60;;;8.00;89.90;;;;;;5052026;28;20404;-69
2022/02/19 01:18:24;;;;;;;22.38;3.30;;;8.00;90.00;;;;;;5040289;28;20997;-68
2022/02/19 01:20:50;;;;;;;23.23;3.90;;;8.00;89.70;;;;;;5050762;28;20497;-68
2022/02/19 01:23:16;;;;;;;24.50;3.92;;;8.00;90.00;;;;;;5068559;28;20419;-69
2022/02/19 01:25:41;;;;;;;24.47;4.00;;;8.00;90.00;;;;;;5068686;28;20482;-69
2022/02/19 01:28:08;;;;;;;23.55;4.05;;;8.00;90.00;;;;;;5068398;28;20419;-68
2022/02/19 01:30:34;;;;;;;23.23;3.40;;;8.00;90.10;;;;;;5069051;28;20465;-70
2022/02/19 01:33:02;;;;;;;18.58;3.45;;;8.00;89.60;;;;;;5049835;28;20436;-69
2022/02/19 01:35:31;;;;;;;19.67;3.50;;;8.00;89.70;;;;;;5050833;28;20914;-68
2022/02/19 01:37:58;;;;;;;20.67;3.60;;;8.00;89.70;;;;;;5050188;28;20461;-69
2022/02/19 01:40:24;;;;;;;22.52;3.50;;;8.00;90.00;;;;;;5047908;28;20786;-69
2022/02/19 01:42:50;;;;;;;18.33;3.50;;;8.00;90.10;;;;;;5044527;28;20932;-69
2022/02/19 01:45:17;;;;;;;20.90;3.40;;;8.00;90.00;;;;;;5047078;28;20439;-69
2022/02/19 01:47:44;;;;;;;24.90;3.85;;;8.00;89.50;;;;;;5041780;28;20411;-68
2022/02/19 01:50:16;;;;;;;23.50;3.70;;;8.00;90.00;;;;;;5047963;28;20401;-69
2022/02/19 01:52:45;;;;;;;24.48;4.07;;;8.00;90.20;;;;;;5045184;28;20411;-68
2022/02/19 01:55:14;;;;;;;22.20;3.40;;;8.00;90.00;;;;;;5046810;28;20397;-69
2022/02/19 01:57:48;;;;;;;23.05;3.45;;;8.00;89.90;;;;;;5046430;28;20409;-69
2022/02/19 02:00:32;;;;;;;20.75;3.85;;;8.00;89.80;;;;;;5047390;28;20455;-69
2022/02/19 02:03:17;;;;;;;21.95;3.90;;;8.00;90.00;;;;;;5047133;28;20421;-68
2022/02/19 02:05:47;;;;;;;22.42;3.72;;;8.00;90.00;;;;;;5048150;28;20448;-69
2022/02/19 02:08:14;;;;;;;25.95;4.00;;;8.00;90.00;;;;;;5046022;28;20492;-68
2022/02/19 02:10:44;;;;;;;23.33;4.10;;;8.00;90.10;;;;;;5047122;28;20415;-69
2022/02/19 02:13:16;;;;;;;23.27;4.05;;;8.00;90.30;;;;;;5046509;28;20525;-69
2022/02/19 02:15:43;;;;;;;25.33;3.70;;;8.00;90.20;;;;;;5047567;28;20981;-68
2022/02/19 02:18:21;;;;;;;19.60;3.40;;;8.00;90.20;;;;;;5033020;28;20974;-69
2022/02/19 02:20:48;;;;;;;26.30;3.93;;;8.00;90.00;;;;;;5030411;28;20417;-69
2022/02/19 02:23:20;;;;;;;24.85;3.80;;;8.00;90.00;;;;;;5046524;28;20429;-69
2022/02/19 02:25:46;;;;;;;27.05;3.80;;;8.00;90.00;;;;;;5046829;28;20422;-69
2022/02/19 02:28:14;;;;;;;25.13;3.88;;;8.00;90.10;;;;;;5046066;28;20503;-69
2022/02/19 02:30:41;;;;;;;26.13;4.18;;;8.00;90.10;;;;;;5046570;28;20504;-67
2022/02/19 02:33:17;;;;;;;24.38;4.10;;;8.00;90.20;;;;;;5045736;28;20413;-68
2022/02/19 02:35:49;;;;;;;28.05;4.10;;;8.00;90.50;;;;;;5046593;28;20405;-68
2022/02/19 02:38:21;;;;;;;27.77;4.53;;;8.00;90.60;;;;;;5044599;28;20866;-68
2022/02/19 02:40:46;;;;;;;23.83;3.97;;;8.00;90.60;;;;;;5043195;28;20482;-69
2022/02/19 02:43:12;;;;;;;24.73;3.93;;;8.00;90.60;;;;;;5047093;28;21135;-69
2022/02/19 02:45:38;;;;;;;28.33;4.25;;;8.00;90.60;;;;;;5047622;28;20402;-68
2022/02/19 02:48:08;;;;;;;27.92;4.72;;;8.00;90.50;;;;;;5045577;28;20421;-68
2022/02/19 02:50:34;;;;;;;22.55;4.35;;;8.00;90.70;;;;;;5048408;28;20484;-68
2022/02/19 02:53:00;;;;;;;24.87;4.20;;;8.00;90.30;;;;;;5044390;28;20409;-68
2022/02/19 02:55:26;;;;;;;26.25;3.92;;;8.00;90.10;;;;;;5046001;28;20409;-68
2022/02/19 02:57:52;;;;;;;27.17;4.57;;;8.10;90.10;;;;;;5043977;28;20433;-68
2022/02/19 03:00:18;;;;;;;27.05;3.70;;;8.00;90.10;;;;;;5046433;28;20428;-69
2022/02/19 03:02:45;;;;;;;24.80;4.57;;;8.00;88.90;;;;;;5044948;28;20444;-69
2022/02/19 03:05:12;;;;;;;24.40;4.23;;;8.00;88.30;;;;;;5046747;28;20510;-69
2022/02/19 03:07:38;;;;;;;23.30;3.88;;;8.00;88.40;;;;;;5028608;28;20401;-68
2022/02/19 03:10:07;;;;;;;19.73;3.40;;;8.00;88.30;;;;;;5046420;28;20834;-69
2022/02/19 03:12:36;;;;;;;26.58;4.25;;;8.00;88.00;;;;;;5045560;28;20971;-68
2022/02/19 03:15:03;;;;;;;23.50;3.85;;;7.90;88.30;;;;;;5045515;28;20417;-69
2022/02/19 03:17:38;;;;;;;24.58;3.53;;;7.90;88.40;;;;;;5044840;28;20424;-68
2022/02/19 03:20:05;;;;;;;25.55;3.33;;;7.90;88.10;;;;;;5047942;28;20409;-68
2022/02/19 03:22:34;;;;;;;21.65;3.60;;;7.90;87.90;;;;;;5078275;28;20465;-68
2022/02/19 03:24:59;;;;;;;24.23;4.00;;;7.90;87.60;;;;;;5077950;28;20762;-68
2022/02/19 03:27:27;;;;;;;18.08;3.15;;;7.90;87.70;;;;;;5044856;28;20409;-67
2022/02/19 03:29:57;;;;;;;28.17;4.28;;;7.90;87.50;;;;;;5045224;28;20398;-68
2022/02/19 03:32:24;;;;;;;26.73;3.90;;;7.90;88.10;;;;;;5044910;28;20751;-67
2022/02/19 03:34:50;;;;;;;27.77;4.33;;;8.00;88.40;;;;;;5043676;28;20410;-67
2022/02/19 03:37:16;;;;;;;20.33;3.58;;;8.00;88.40;;;;;;5044050;28;20485;-68
2022/02/19 03:39:42;;;;;;;27.07;4.00;;;7.90;87.50;;;;;;5045179;28;20425;-68
2022/02/19 03:42:08;;;;;;;22.17;3.65;;;7.90;87.40;;;;;;5044601;28;20476;-68
2022/02/19 03:44:34;;;;;;;21.75;3.72;;;7.90;87.30;;;;;;5028475;28;20450;-68
2022/02/19 03:47:07;;;;;;;22.52;3.85;;;7.90;86.40;;;;;;5044648;28;20405;-67
2022/02/19 03:49:40;;;;;;;21.95;3.55;;;7.90;86.70;;;;;;5075463;28;20400;-69
2022/02/19 03:52:06;;;;;;;23.13;3.73;;;7.90;86.80;;;;;;5043653;28;20476;-68
2022/02/19 03:54:35;;;;;;;22.27;3.50;;;7.90;86.50;;;;;;5044338;28;20405;-68
2022/02/19 03:57:01;;;;;;;22.45;3.78;;;7.90;86.20;;;;;;5044833;28;20503;-69
2022/02/19 03:59:26;;;;;;;21.55;3.67;;;7.90;86.50;;;;;;5027793;28;21035;-69
2022/02/19 04:01:56;;;;;;;21.30;3.70;;;7.90;86.80;;;;;;5042790;28;20432;-69
2022/02/19 04:04:23;;;;;;;24.58;3.65;;;7.90;86.40;;;;;;5043744;28;20408;-69
2022/02/19 04:06:49;;;;;;;21.13;3.50;;;7.90;86.50;;;;;;5044927;28;20463;-69
2022/02/19 04:09:24;;;;;;;19.75;3.50;;;7.90;86.20;;;;;;5029176;28;21329;-68
2022/02/19 04:11:50;;;;;;;22.27;3.60;;;7.90;86.30;;;;;;5049087;28;20512;-68
2022/02/19 04:14:16;;;;;;;23.40;3.58;;;7.90;87.10;;;;;;5048949;28;20933;-69
2022/02/19 04:16:55;;;;;;;25.85;3.42;;;7.90;86.80;;;;;;5049132;28;20412;-69
2022/02/19 04:19:25;;;;;;;18.48;3.10;;;7.90;86.60;;;;;;5045427;28;20519;-69
2022/02/19 04:21:51;;;;;;;21.98;3.13;;;7.90;86.60;;;;;;5048901;28;20413;-70
2022/02/19 04:24:20;;;;;;;20.65;3.00;;;7.90;86.70;;;;;;5048017;28;20413;-69
2022/02/19 04:26:53;;;;;;;25.27;3.90;;;7.90;85.90;;;;;;5048113;28;20400;-69
2022/02/19 04:29:20;;;;;;;25.20;3.65;;;7.90;86.20;;;;;;5046361;28;20424;-69
2022/02/19 04:31:54;;;;;;;24.42;4.00;;;7.90;86.20;;;;;;5048356;28;20893;-69
2022/02/19 04:34:24;;;;;;;23.90;3.85;;;7.90;86.10;;;;;;5024892;28;20483;-68
2022/02/19 04:36:51;;;;;;;22.70;3.40;;;7.90;86.40;;;;;;5046814;28;20416;-70
2022/02/19 04:39:19;;;;;;;26.80;3.75;;;7.90;86.80;;;;;;5049992;28;20420;-69
2022/02/19 04:41:46;;;;;;;26.52;3.80;;;7.90;87.90;;;;;;5051636;28;20513;-69
2022/02/19 04:44:15;;;;;;;27.00;4.07;;;7.90;87.90;;;;;;5051252;28;20517;-70
2022/02/19 04:46:41;;;;;;;21.75;3.10;;;7.90;88.10;;;;;;5051528;28;20531;-70
2022/02/19 04:49:07;;;;;;;21.10;3.53;;;7.90;86.90;;;;;;5050180;28;20473;-69
2022/02/19 04:51:33;;;;;;;23.40;3.88;;;7.90;86.70;;;;;;5069764;28;20395;-70
2022/02/19 04:53:58;;;;;;;25.83;3.93;;;7.90;87.20;;;;;;5050716;28;20415;-69
2022/02/19 04:56:25;;;;;;;23.85;3.53;;;7.90;87.30;;;;;;5051146;28;20446;-70
2022/02/19 04:58:51;;;;;;;25.33;3.83;;;7.90;87.20;;;;;;5068616;28;20420;-69
2022/02/19 05:01:17;;;;;;;26.00;3.80;;;7.90;87.40;;;;;;5049948;28;20411;-70
2022/02/19 05:04:05;;;;;;;26.73;3.47;;;7.90;87.10;;;;;;5049835;28;20419;-69
2022/02/19 05:06:46;;;;;;;22.60;3.65;;;7.90;87.10;;;;;;5067319;28;20392;-69
2022/02/19 05:09:12;;;;;;;22.73;3.60;;;7.90;87.40;;;;;;5050394;28;20400;-69
2022/02/19 05:11:44;;;;;;;22.75;3.53;;;7.90;87.30;;;;;;5051561;28;20384;-69
2022/02/19 05:14:12;;;;;;;24.23;3.63;;;7.90;87.40;;;;;;5049140;28;20772;-68
2022/02/19 05:16:38;;;;;;;25.20;3.40;;;7.90;87.50;;;;;;5034274;28;20457;-68
2022/02/19 05:19:08;;;;;;;24.73;3.40;;;7.80;87.20;;;;;;5050124;28;20415;-68
2022/02/19 05:21:38;;;;;;;23.00;3.58;;;7.80;87.10;;;;;;5049936;28;20408;-71
2022/02/19 05:24:06;;;;;;;20.67;3.47;;;7.90;86.70;;;;;;5049270;28;20411;-70
2022/02/19 05:26:54;;;;;;;21.58;3.67;;;7.90;86.90;;;;;;5053029;28;20967;-71
2022/02/19 05:29:23;;;;;;;19.50;3.37;;;7.90;87.60;;;;;;5079874;28;20408;-70
2022/02/19 05:31:50;;;;;;;19.00;2.90;;;7.90;86.90;;;;;;5048680;28;20411;-69
2022/02/19 05:34:29;;;;;;;18.00;3.03;;;7.90;86.50;;;;;;5049634;28;20465;-70
2022/02/19 05:36:59;;;;;;;22.15;3.00;;;7.90;86.40;;;;;;5050007;28;20493;-70
2022/02/19 05:39:26;;;;;;;20.75;3.33;;;7.90;85.80;;;;;;5066579;28;20423;-69
2022/02/19 05:41:52;;;;;;;21.37;3.10;;;7.90;86.10;;;;;;5049290;28;20947;-71
2022/02/19 05:44:23;;;;;;;27.25;3.90;;;7.90;86.80;;;;;;5048502;28;20752;-69
2022/02/19 05:46:51;;;;;;;20.48;3.55;;;7.90;87.70;;;;;;5049247;28;20414;-71
2022/02/19 05:49:20;;;;;;;20.38;3.03;;;7.90;87.70;;;;;;5048695;28;20488;-68
2022/02/19 05:52:00;;;;;;;20.92;3.42;;;7.90;88.00;;;;;;5062334;28;20449;-70
2022/02/19 05:54:32;;;;;;;20.20;3.00;;;7.90;87.20;;;;;;5050559;28;20392;-71
2022/02/19 05:57:09;;;;;;;21.17;3.57;;;7.80;87.70;;;;;;5051126;28;20419;-70
2022/02/19 05:59:36;;;;;;;22.67;3.40;;;7.90;88.10;;;;;;5081022;28;20411;-69
2022/02/19 06:02:01;;;;;;;21.08;3.70;;;7.90;88.30;;;;;;5048053;28;20399;-68
2022/02/19 06:04:28;;;;;;;24.30;3.60;;;7.80;88.50;;;;;;5082401;28;20396;-68
2022/02/19 06:06:54;;;;;;;24.05;3.60;;;7.90;88.60;;;;;;5049268;28;20434;-70
2022/02/19 06:09:23;;;;;;;17.73;3.00;;;7.80;88.30;;;;;;5066901;28;20976;-69
2022/02/19 06:11:49;;;;;;;21.57;3.30;;;7.80;88.00;;;;;;5049882;28;20403;-69
2022/02/19 06:14:40;;;;;;;21.20;3.67;;;7.80;88.00;;;;;;5054399;28;20415;-69
2022/02/19 06:17:08;;;;;;;20.88;3.30;;;7.80;87.90;;;;;;5048222;28;20459;-69
2022/02/19 06:19:34;;;;;;;23.25;3.97;;;7.90;88.20;;;;;;5065615;28;20405;-69
2022/02/19 06:22:00;;;;;;;22.13;3.50;;;7.90;88.60;;;;;;5049884;28;20407;-70
2022/02/19 06:24:31;;;;;;;14.90;3.03;;;7.90;88.90;;;;;;5083170;28;20434;-70
2022/02/19 06:26:57;;;;;;;23.20;2.92;;;7.80;88.70;;;;;;5048483;28;20446;-69
2022/02/19 06:29:36;;;;;;;21.42;3.70;;;7.80;88.50;;;;;;5049499;28;20442;-69
2022/02/19 06:32:03;;;;;;;19.30;3.30;;;7.80;88.70;;;;;;5047695;28;20408;-69
2022/02/19 06:34:31;;;;;;;22.10;3.43;;;7.80;89.20;;;;;;5048282;28;20496;-69
2022/02/19 06:36:57;;;;;;;21.00;3.22;;;7.80;89.40;;;;;;5049796;28;20450;-69
2022/02/19 06:39:27;;;;;;;20.63;3.42;;;7.80;89.80;;;;;;5048644;28;20416;-69
2022/02/19 06:41:55;;;;;;;28.33;3.88;;;7.80;89.70;;;;;;5046454;28;20472;-69
2022/02/19 06:44:26;;;;;;;21.13;3.10;;;7.80;89.80;;;;;;5031886;28;20400;-70
2022/02/19 06:46:54;;;;;;;20.00;3.15;;;7.80;89.80;;;;;;5048685;28;20457;-69
2022/02/19 06:49:20;;;;;;;14.45;3.08;;;7.80;89.60;;;;;;5047659;28;20404;-70
2022/02/19 06:51:49;;;;;;;23.10;3.10;;;7.80;88.90;;;;;;5048351;28;20414;-70
2022/02/19 06:54:15;;;;;;;17.00;2.85;;;7.80;89.20;;;;;;5048277;28;20410;-69
2022/02/19 06:56:41;;;;;;;23.90;3.30;;;7.80;89.70;;;;;;5048601;28;20764;-68
2022/02/19 06:59:06;;;;;;;20.10;3.10;;;7.80;89.70;;;;;;5066562;28;20524;-69
2022/02/19 07:01:33;;;;;;;20.27;2.95;;;7.80;90.00;;;;;;5047802;28;21043;-70
2022/02/19 07:03:59;;;;;;;19.13;3.00;;;7.80;89.70;;;;;;5048348;28;20930;-70
2022/02/19 07:06:51;;;;;;;22.65;3.42;;;7.80;89.80;;;;;;5065333;28;20417;-69
2022/02/19 07:09:17;;;;;;;24.40;3.10;;;7.80;89.70;;;;;;5047204;28;21526;-70
2022/02/19 07:11:42;;;;;;;19.85;2.90;;;7.80;89.80;;;;;;5049107;28;20499;-69
2022/02/19 07:14:10;;;;;;;18.20;3.17;;;7.80;88.70;;;;;;5046773;28;20730;-69
2022/02/19 07:16:35;;;;;;;20.23;3.33;;;7.80;88.60;;;;;;5047639;28;20410;-69
2022/02/19 07:19:01;;;;;;;26.00;3.60;;;7.80;89.40;;;;;;5064132;28;20981;-70
2022/02/19 07:21:27;;;;;;;19.93;3.00;;;7.80;89.60;;;;;;5049362;28;20426;-69
2022/02/19 07:23:52;;;;;;;18.40;3.05;;;7.80;89.40;;;;;;5046648;28;20407;-69
2022/02/19 07:26:23;;;;;;;21.95;2.90;;;7.80;88.80;;;;;;5050206;28;20434;-69
2022/02/19 07:28:52;;;;;;;23.20;3.00;;;7.70;88.20;;;;;;5047827;28;20395;-69
2022/02/19 07:31:19;;;;;;;20.77;2.90;;;7.70;87.80;;;;;;5048975;28;20430;-71
2022/02/19 07:33:44;;;;;;;19.63;2.97;;;7.80;88.10;;;;;;5050534;28;20787;-69
2022/02/19 07:36:14;;;;;;;23.48;3.60;;;7.80;88.20;;;;;;5049373;28;20407;-69
2022/02/19 07:38:41;;;;;;;21.83;3.45;;;7.80;88.00;;;;;;5049044;28;20955;-70
2022/02/19 07:41:06;;;;;;;20.48;3.10;;;7.80;87.50;;;;;;5045528;28;20425;-70
2022/02/19 07:43:58;;;;;;;20.60;3.40;;;7.80;87.80;;;;;;5043918;28;20405;-68
2022/02/19 07:46:42;;;;;;;18.10;3.50;;;7.80;88.20;;;;;;5050292;28;20496;-70
2022/02/19 07:58:33;;;;;;;26.40;3.33;;;8.00;88.80;;;;;;5049201;28;20417;-69
2022/02/19 08:01:10;;;;;;;22.17;3.10;;;8.00;88.20;;;;;;5049752;28;20416;-69
2022/02/19 08:03:44;;;;;;;20.50;2.88;;;8.00;88.60;;;;;;5048971;28;20948;-69
2022/02/19 08:06:10;;;;;;;15.87;2.90;;;8.00;87.50;;;;;;5049888;28;20405;-71
2022/02/19 08:08:39;;;;;;;22.10;3.30;;;8.10;87.50;;;;;;5047347;28;20431;-69
2022/02/19 08:11:13;;;;;;;25.73;3.83;;;8.20;87.60;;;;;;5046735;28;20943;-70
2022/02/19 08:13:39;;;;;;;25.77;3.78;;;8.20;87.90;;;;;;5046913;28;20983;-69
2022/02/19 08:16:05;;;;;;;23.00;3.40;;;8.30;88.20;;;;;;5046385;28;20431;-69
2022/02/19 08:18:31;;;;;;;18.35;3.22;;;8.40;87.90;;;;;;5047424;28;20420;-69
2022/02/19 08:20:57;;;;;;;20.60;3.30;;;8.40;87.10;;;;;;5049867;28;20413;-68
2022/02/19 08:23:23;;;;;;;18.23;3.10;;;8.60;86.90;;;;;;5050465;28;20408;-70
2022/02/19 08:25:49;;;;;;;17.30;3.35;;;8.70;86.00;;;;;;5049891;28;20421;-71
2022/02/19 08:28:15;;;;;;;18.83;3.13;;;9.00;85.00;;;;;;5046722;28;20464;-70
2022/02/19 08:30:43;;;;;;;17.38;3.20;;;9.30;83.00;;;;;;5050117;28;20393;-70
2022/02/19 08:33:10;;;;;;;20.50;3.08;;;9.60;81.50;;;;;;5047852;28;20447;-70
2022/02/19 08:35:37;;;;;;;16.92;2.85;;;9.80;80.90;;;;;;5049864;28;20444;-71
2022/02/19 08:38:04;;;;;;;20.52;3.05;;;10.10;80.00;;;;;;5049805;28;20770;-69
2022/02/19 08:40:30;;;;;;;21.80;3.65;;;10.20;78.80;;;;;;5062614;28;20419;-69
2022/02/19 08:42:56;;;;;;;21.93;3.47;;;10.20;79.30;;;;;;5051772;28;20414;-69
2022/02/19 08:45:22;;;;;;;21.73;3.15;;;10.30;78.80;;;;;;5070761;28;20478;-68
2022/02/19 08:47:48;;;;;;;20.27;3.00;;;10.20;78.80;;;;;;5069463;28;20494;-69
2022/02/19 08:50:15;;;;;;;17.95;3.25;;;10.20;79.50;;;;;;5069801;28;20847;-69
2022/02/19 08:52:46;;;;;;;21.25;3.10;;;10.20;79.60;;;;;;5069776;28;20507;-69
2022/02/19 08:55:15;;;;;;;15.87;2.73;;;10.20;79.10;;;;;;5069889;28;20408;-68
2022/02/19 08:57:41;;;;;;;16.17;3.07;;;10.10;79.40;;;;;;5069932;28;22607;-68
2022/02/19 09:00:10;;;;;;;17.08;2.78;;;10.20;79.10;;;;;;5070740;28;20411;-70
2022/02/19 09:02:37;;;;;;;18.20;2.50;;;10.40;77.30;;;;;;5068487;28;20903;-69
2022/02/19 09:05:03;;;;;;;16.23;2.85;;;10.90;74.70;;;;;;5070002;28;20454;-70
2022/02/19 09:07:29;;;;;;;17.50;3.10;;;11.40;72.30;;;;;;5082797;28;20411;-69
2022/02/19 09:09:54;;;;;;;21.13;3.00;;;11.80;71.10;;;;;;5070350;28;20433;-70
2022/02/19 09:12:22;;;;;;;15.97;2.83;;;12.20;70.60;;;;;;5069620;28;20478;-67
2022/02/19 09:14:47;;;;;;;16.65;3.00;;;12.60;68.30;;;;;;5051506;28;20403;-68
2022/02/19 09:17:13;;;;;;;16.58;2.72;;;12.90;66.10;;;;;;5067929;28;20411;-68
2022/02/19 09:19:39;;;;;;;15.27;2.60;;;13.20;65.60;;;;;;5068850;28;20495;-69
2022/02/19 09:22:05;;;;;;;16.77;3.40;;;13.40;63.00;;;;;;5066917;28;20416;-70
2022/02/19 09:24:31;;;;;;;19.73;2.97;;;13.50;62.60;;;;;;5069935;28;20407;-70
2022/02/19 09:26:57;;;;;;;17.57;3.00;;;13.60;61.20;;;;;;5069998;28;20404;-70
2022/02/19 09:29:25;;;;;;;15.10;3.08;;;13.60;61.50;;;;;;5050802;28;20402;-68
2022/02/19 09:31:51;;;;;;;15.60;2.85;;;13.50;61.70;;;;;;5069956;28;20427;-69
2022/02/19 09:34:18;;;;;;;17.95;2.38;;;13.50;62.20;;;;;;5068063;28;20788;-69
2022/02/19 09:36:43;;;;;;;17.25;2.40;;;13.50;61.50;;;;;;5051738;28;20399;-70
2022/02/19 09:39:09;;;;;;;14.85;3.20;;;13.30;60.80;;;;;;5068057;28;20461;-70
2022/02/19 09:41:35;;;;;;;16.67;2.60;;;13.10;62.00;;;;;;5051776;28;20411;-69
2022/02/19 09:44:02;;;;;;;19.50;2.90;;;13.00;62.60;;;;;;5067669;28;20408;-71
2022/02/19 09:46:30;;;;;;;15.50;2.67;;;12.80;63.20;;;;;;5069589;28;20411;-67
2022/02/19 09:48:57;;;;;;;17.17;2.97;;;12.60;64.80;;;;;;5068622;28;20404;-70
2022/02/19 09:51:23;;;;;;;16.42;2.88;;;12.50;65.40;;;;;;5068857;28;20493;-69
2022/02/19 09:53:49;;;;;;;18.55;3.03;;;12.40;64.90;;;;;;5067659;28;20403;-70
2022/02/19 09:56:15;;;;;;;16.67;2.47;;;12.30;65.60;;;;;;5067649;28;20412;-70
2022/02/19 09:58:45;;;;;;;15.87;2.50;;;12.20;66.00;;;;;;5049496;28;20422;-69
2022/02/19 10:01:19;;;;;;;13.55;2.60;;;12.10;65.80;;;;;;5067916;28;20423;-68
2022/02/19 10:03:46;;;;;;;15.90;2.50;;;11.90;67.30;;;;;;5066993;28;21212;-69
2022/02/19 10:06:15;;;;;;;20.00;3.00;;;11.90;68.20;;;;;;5069257;28;20404;-71
2022/02/19 10:08:41;;;;;;;15.82;2.63;;;12.00;68.80;;;;;;5048654;28;21178;-70
2022/02/19 10:11:13;;;;;;;16.13;3.00;;;12.20;67.30;;;;;;5066428;28;20411;-70
2022/02/19 10:13:43;;;;;;;16.27;2.63;;;12.20;66.60;;;;;;5067724;28;20443;-70
2022/02/19 10:16:10;;;;;;;17.13;2.60;;;12.20;67.10;;;;;;5068957;28;20438;-71
2022/02/19 10:18:42;;;;;;;15.68;2.83;;;12.10;67.70;;;;;;5067730;28;20419;-68
2022/02/19 10:21:18;;;;;;;16.27;2.90;;;12.10;68.60;;;;;;5069063;28;20423;-69
2022/02/19 10:23:45;;;;;;;14.43;2.72;;;12.20;67.90;;;;;;5067029;28;20415;-70
2022/02/19 10:26:13;;;;;;;16.85;2.70;;;12.10;67.80;;;;;;5068485;28;20517;-70
2022/02/19 10:28:39;;;;;;;16.02;2.72;;;11.90;68.50;;;;;;5067000;28;20414;-71
2022/02/19 10:31:16;;;;;;;17.00;3.20;;;11.70;69.90;;;;;;5050037;28;20423;-69
2022/02/19 10:33:43;;;;;;;19.17;3.17;;;11.40;70.90;;;;;;5066091;28;20541;-69
2022/02/19 10:36:19;;;;;;;17.58;3.00;;;11.40;73.50;;;;;;5068674;28;20392;-70
2022/02/19 10:38:52;;;;;;;14.55;2.47;;;11.30;72.70;;;;;;5068837;28;20197;-69
2022/02/19 10:41:18;;;;;;;20.83;2.85;;;10.80;74.50;;;;;;5068478;28;20234;-69
2022/02/19 10:43:43;;;;;;;13.50;2.17;;;10.40;75.70;;;;;;5053330;28;20185;-70
2022/02/19 10:46:11;;;;;;;17.45;2.72;;;10.20;76.80;;;;;;5051330;28;20555;-72
2022/02/19 10:48:38;;;;;;;15.38;2.30;;;10.10;77.80;;;;;;5068079;28;20648;-72
2022/02/19 10:51:13;;;;;;;11.10;2.35;;;10.10;78.50;;;;;;5068488;28;20302;-70
2022/02/19 10:53:40;;;;;;;17.42;2.67;;;10.20;78.90;;;;;;5049700;28;20200;-71
2022/02/19 10:56:17;;;;;;;14.30;2.15;;;10.30;78.80;;;;;;5068954;28;20226;-71
2022/02/19 10:59:21;;;;;;;17.38;2.35;;;10.40;78.50;;;;;;5067153;28;20221;-71
2022/02/19 11:01:52;;;;;;;13.60;1.95;;;10.30;78.30;;;;;;5068053;28;20224;-71
2022/02/19 11:04:20;;;;;;;16.48;2.35;;;10.10;79.00;;;;;;5068550;28;20220;-70
2022/02/19 11:06:47;;;;;;;12.88;2.05;;;10.00;79.20;;;;;;5068840;28;20178;-71
2022/02/19 11:09:13;;;;;;;11.85;2.25;;;10.00;79.70;;;;;;5068186;28;20245;-70
2022/02/19 11:11:42;;;;;;;17.05;2.70;;;9.90;79.50;;;;;;5067651;28;20182;-69
2022/02/19 11:14:09;;;;;;;18.55;2.75;;;9.90;79.60;;;;;;5083071;28;20698;-68
2022/02/19 11:16:36;;;;;;;20.35;2.63;;;9.90;79.90;;;;;;5068965;28;20203;-71
2022/02/19 11:19:04;;;;;;;17.38;2.13;;;10.00;80.70;;;;;;5067252;28;20183;-70
2022/02/19 11:21:31;;;;;;;17.13;2.50;;;10.00;80.10;;;;;;5068482;28;20206;-69
2022/02/19 11:24:02;;;;;;;22.85;3.22;;;9.90;80.00;;;;;;5067447;28;20231;-71
2022/02/19 11:26:28;;;;;;;25.17;2.80;;;9.80;81.10;;;;;;5068472;28;20194;-72
2022/02/19 11:29:00;;;;;;;17.63;2.78;;;9.80;82.10;;;;;;5068024;28;20212;-69
2022/02/19 11:31:28;;;;;;;20.70;2.50;;;10.00;82.50;;;;;;5069208;28;20186;-71
2022/02/19 11:33:59;;;;;;;18.70;2.55;;;10.10;81.90;;;;;;5068455;28;20190;-72
2022/02/19 11:36:26;;;;;;;20.33;2.50;;;10.20;81.70;;;;;;5068408;28;20692;-70
2022/02/19 11:38:53;;;;;;;17.20;2.70;;;10.30;81.40;;;;;;5067445;28;20178;-72
2022/02/19 11:41:39;;;;;;;16.13;3.00;;;10.30;81.50;;;;;;5065894;28;20228;-73
2022/02/19 11:44:24;;;;;;;17.13;2.78;;;10.40;81.90;;;;;;5067797;28;20205;-68
2022/02/19 11:46:52;;;;;;;17.92;2.90;;;10.40;81.60;;;;;;5068680;28;20216;-68
2022/02/19 11:49:20;;;;;;;19.30;2.65;;;10.40;81.70;;;;;;5067479;28;20198;-69
2022/02/19 11:51:47;;;;;;;19.30;3.08;;;10.50;81.70;;;;;;5049927;28;20573;-67
2022/02/19 11:54:12;;;;;;;20.33;2.70;;;10.40;81.90;;;;;;5066786;28;20195;-69
2022/02/19 11:56:41;;;;;;;15.57;2.80;;;10.40;81.90;;;;;;5068518;28;20655;-71
2022/02/19 11:59:11;;;;;;;17.85;2.60;;;10.40;82.30;;;;;;5068122;28;20651;-68
2022/02/19 12:01:38;;;;;;;18.15;2.78;;;10.30;82.20;;;;;;5063945;28;20211;-71
2022/02/19 12:04:09;;;;;;;23.45;3.17;;;10.20;82.10;;;;;;5062056;28;20175;-72
2022/02/19 12:06:36;;;;;;;19.63;2.63;;;10.00;82.30;;;;;;5064784;28;20198;-71
2022/02/19 12:09:09;;;;;;;24.30;2.72;;;9.90;83.10;;;;;;5067156;28;20182;-71
2022/02/19 12:12:05;;;;;;;14.30;2.70;;;9.80;83.80;;;;;;5066071;28;20186;-69
2022/02/19 12:14:50;;;;;;;17.40;2.22;;;9.70;84.60;;;;;;5066912;28;20203;-68
2022/02/19 12:17:23;;;;;;;17.13;2.42;;;9.60;84.80;;;;;;5065904;28;20190;-69
2022/02/19 12:19:52;;;;;;;19.58;3.22;;;9.60;85.20;;;;;;5049811;28;20269;-71
2022/02/19 12:22:39;;;;;;;12.88;2.38;;;9.50;85.70;;;;;;5080471;28;20655;-69
2022/02/19 12:25:12;;;;;;;13.98;2.40;;;9.50;86.00;;;;;;5067242;28;20183;-71
2022/02/19 12:27:40;;;;;;;24.13;2.53;;;9.50;86.90;;;;;;5066307;28;20278;-69
2022/02/19 12:30:26;;;;;;;18.90;2.72;;;9.40;86.20;;;;;;5067688;28;20219;-69
2022/02/19 12:33:01;;;;;;;32.75;3.22;;;9.50;86.50;;;;;;5070240;28;20345;-69
2022/02/19 12:35:42;;;;;;;19.05;2.80;;;9.50;86.50;;;;;;5050509;28;20190;-71
2022/02/19 12:38:11;;;;;;;22.30;2.60;;;9.50;86.60;;;;;;5035192;28;20190;-68
2022/02/19 12:40:37;;;;;;;21.83;2.75;;;9.50;86.70;;;;;;5069989;28;20226;-70
2022/02/19 12:43:04;;;;;;;22.63;3.17;;;9.40;87.00;;;;;;5069298;28;20413;-70
2022/02/19 12:45:34;;;;;;;20.92;3.10;;;9.80;86.90;;;;;;5051848;28;20462;-71
2022/02/19 12:48:00;;;;;;;29.83;3.33;;;10.10;86.00;;;;;;5069404;28;20549;-70
2022/02/19 12:50:26;;;;;;;23.52;3.13;;;10.20;85.80;;;;;;5069190;28;20411;-70
2022/02/19 12:52:52;;;;;;;29.40;3.88;;;10.30;86.10;;;;;;5068973;28;20491;-69
2022/02/19 12:55:20;;;;;;;24.73;3.33;;;10.30;86.30;;;;;;5051742;28;20412;-71
2022/02/19 12:57:50;;;;;;;19.42;3.20;;;10.30;86.20;;;;;;5068382;28;20451;-71
2022/02/19 13:00:17;;;;;;;23.80;3.22;;;10.30;85.40;;;;;;5069230;28;20506;-69